首页
METAR-TAF:

METAR-TAF

机场 :

Mountain Home, 阿肯色州, 美国

纬度: 36-22-14N, 经度: 092-28-19W, 海拔: 282米

当前天气观测

该预报发布于27分钟前的10:53 UTC
静风
温度 -4°C
湿度 80%
气压 1030 hPa
能見度: 16.1公里
天空无云

METAR: KBPK 111053Z AUTO 00000KT 10SM CLR M04/M07 A3042 RMK AO2 SLP310 T10391072

时间: 05:20 (11:20 UTC)

预报

该预报发布于5小时和57分钟前的05:23 UTC
预报有效从11日的 06点(UTC)到 12日的 06点(UTC)
风速4节,风向多变
能見度: 10公里
少量云层高于25000英尺
从 11日的 1500点(UTC)
风速5节,风向南转西南
能見度: 10公里
天空无云

TAF: KBPK 110523Z 1106/1206 VRB04KT P6SM FEW250 FM111500 21005KT P6SM SKC

超过4000个机场的气象观测和天气预报(METAR&TAF报告)。

可查询的气象台以黄色和红色小点在地图上表示。

将鼠标移到小点上方,可查看气象台名称。

然后点击查看天气观测和预报。

如需切换地图:点击带黑十字的绿色按钮放大地图;点击带横线的绿色按钮缩小地图;或者点击绿色箭头查看邻近地区的地图。


METAR-TAF: